Time;durP1;ratioP1;P1;durP2;ratioP2;P2;SDS_P1;SDS_P2;PMS_P1;PMS_P2;Temp;Humidity;BMP_temperature;BMP_pressure;BME280_temperature;BME280_humidity;BME280_pressure;Samples;Min_cycle;Max_cycle;Signal;HPM_P1;HPM_P2
2020/12/26 00:00:25;;;;;;;45.35;27.27;;;;;;;4.42;86.68;100263.69;5110235;28;20039;-66
2020/12/26 00:02:50;;;;;;;42.47;24.85;;;;;;;4.41;86.62;100267.63;5105983;28;20027;-65
2020/12/26 00:05:15;;;;;;;42.45;25.02;;;;;;;4.43;86.12;100264.50;5116363;28;20414;-66
2020/12/26 00:07:41;;;;;;;42.13;24.25;;;;;;;4.46;86.58;100266.53;5107387;28;20391;-64
2020/12/26 00:10:06;;;;;;;42.97;25.77;;;;;;;4.47;86.35;100271.75;5106262;28;20031;-66
2020/12/26 00:12:34;;;;;;;43.85;26.55;;;;;;;4.47;86.14;100280.09;5100722;28;20023;-64
2020/12/26 00:14:59;;;;;;;43.17;24.42;;;;;;;4.48;86.24;100290.06;5082377;28;20031;-65
2020/12/26 00:17:25;;;;;;;32.90;20.52;;;;;;;4.50;86.04;100287.72;5104568;28;20019;-66
2020/12/26 00:19:50;;;;;;;30.50;19.08;;;;;;;4.52;85.64;100306.81;5118378;28;20529;-65
2020/12/26 00:22:15;;;;;;;35.15;19.40;;;;;;;4.52;85.61;100310.41;5099925;28;20110;-66
2020/12/26 00:24:41;;;;;;;41.70;22.25;;;;;;;4.53;85.25;100327.91;5118108;28;20023;-65
2020/12/26 00:27:06;;;;;;;38.90;23.70;;;;;;;4.52;85.01;100327.13;5108564;28;20095;-66
2020/12/26 00:29:31;;;;;;;40.85;23.48;;;;;;;4.54;84.84;100321.19;5097620;28;20020;-65
2020/12/26 00:31:57;;;;;;;50.45;26.52;;;;;;;4.53;84.75;100314.81;5097720;28;20027;-65
2020/12/26 00:34:22;;;;;;;56.90;31.30;;;;;;;4.50;84.97;100326.69;5096948;28;20028;-64
2020/12/26 00:36:48;;;;;;;64.45;33.65;;;;;;;4.51;84.64;100338.63;5102202;28;20039;-65
2020/12/26 00:39:13;;;;;;;61.15;31.20;;;;;;;4.52;84.90;100352.16;5101349;28;20031;-64
2020/12/26 00:41:39;;;;;;;46.85;24.58;;;;;;;4.52;84.77;100357.72;5103690;28;20030;-64
2020/12/26 00:44:04;;;;;;;36.42;21.10;;;;;;;4.52;84.85;100368.88;5100941;28;20030;-64
2020/12/26 00:46:29;;;;;;;30.92;18.80;;;;;;;4.52;85.08;100365.28;5105861;28;20019;-65
2020/12/26 00:48:55;;;;;;;29.25;17.55;;;;;;;4.53;84.82;100372.47;5085661;28;20077;-64
2020/12/26 00:51:20;;;;;;;26.02;15.93;;;;;;;4.55;85.06;100370.13;5103100;28;20431;-66
2020/12/26 00:53:45;;;;;;;28.15;16.95;;;;;;;4.56;84.93;100375.31;5105191;28;20038;-65
2020/12/26 00:56:10;;;;;;;25.58;16.23;;;;;;;4.57;84.60;100376.94;5100352;28;20035;-65
2020/12/26 00:58:36;;;;;;;32.30;18.50;;;;;;;4.58;84.43;100372.97;5108834;28;20024;-65
2020/12/26 01:01:01;;;;;;;30.90;17.23;;;;;;;4.59;84.66;100374.59;5098493;28;20337;-66
2020/12/26 01:03:29;;;;;;;26.73;15.90;;;;;;;4.61;84.61;100372.25;5089106;28;20816;-64
2020/12/26 01:05:55;;;;;;;27.52;15.82;;;;;;;4.62;84.82;100370.28;5102801;28;20411;-64
2020/12/26 01:08:21;;;;;;;20.95;14.13;;;;;;;4.61;84.62;100366.69;5103192;28;20035;-65
2020/12/26 01:10:46;;;;;;;23.58;14.02;;;;;;;4.60;84.61;100370.63;5105501;28;20369;-65
2020/12/26 01:13:12;;;;;;;27.95;15.32;;;;;;;4.58;84.38;100370.19;5102044;28;20103;-64
2020/12/26 01:15:37;;;;;;;27.30;15.27;;;;;;;4.58;84.67;100377.75;5106376;28;20019;-64
2020/12/26 01:18:03;;;;;;;25.88;15.52;;;;;;;4.58;84.38;100384.13;5112598;28;20015;-64
2020/12/26 01:20:29;;;;;;;22.75;14.30;;;;;;;4.57;84.27;100388.06;5117093;28;20336;-65
2020/12/26 01:22:54;;;;;;;22.23;13.30;;;;;;;4.57;84.77;100390.84;5116635;28;20423;-63
2020/12/26 01:25:19;;;;;;;19.98;13.70;;;;;;;4.58;84.40;100405.56;5116964;28;20076;-62
2020/12/26 01:27:45;;;;;;;23.58;13.88;;;;;;;4.59;84.62;100408.00;5116958;28;20019;-62
2020/12/26 01:30:10;;;;;;;23.40;14.38;;;;;;;4.59;84.48;100402.44;5116813;28;20055;-67
2020/12/26 01:32:35;;;;;;;22.17;12.55;;;;;;;4.57;84.53;100404.78;5116788;28;20016;-65
2020/12/26 01:35:01;;;;;;;22.98;14.43;;;;;;;4.54;84.55;100399.94;5109573;28;20312;-62
2020/12/26 01:37:27;;;;;;;21.88;13.13;;;;;;;4.54;84.69;100413.84;5108976;28;20096;-67
2020/12/26 01:39:53;;;;;;;22.77;15.02;;;;;;;4.54;85.05;100416.63;5116660;28;20051;-68
2020/12/26 01:42:18;;;;;;;25.35;14.80;;;;;;;4.54;85.09;100413.03;5108634;28;20319;-65
2020/12/26 01:44:43;;;;;;;27.45;14.95;;;;;;;4.53;85.13;100403.88;5096477;28;20397;-67
2020/12/26 01:47:09;;;;;;;28.40;16.45;;;;;;;4.53;85.47;100406.66;5099917;28;20403;-67
2020/12/26 01:49:35;;;;;;;24.95;15.43;;;;;;;4.53;85.47;100403.88;5108194;28;20019;-65
2020/12/26 01:52:02;;;;;;;25.05;15.55;;;;;;;4.55;85.13;100400.75;5105332;28;20047;-61
2020/12/26 01:54:29;;;;;;;24.40;15.50;;;;;;;4.57;85.54;100396.41;5103102;28;20015;-62
2020/12/26 01:56:56;;;;;;;26.20;16.63;;;;;;;4.60;85.53;100406.03;5116611;28;20019;-67
2020/12/26 01:59:21;;;;;;;29.33;17.45;;;;;;;4.59;85.46;100390.50;5116226;28;20422;-65
2020/12/26 02:01:49;;;;;;;28.27;16.95;;;;;;;4.60;85.73;100395.69;5116490;28;20096;-61
2020/12/26 02:04:15;;;;;;;24.15;15.40;;;;;;;4.60;85.52;100395.69;5110325;28;20494;-66
2020/12/26 02:06:57;;;;;;;25.98;16.27;;;;;;;4.61;85.30;100393.72;5116195;28;20102;-63
2020/12/26 02:09:23;;;;;;;;;;;;;;;4.62;85.69;100398.09;5111724;28;20027;-62
2020/12/26 02:11:49;;;;;;;26.02;15.68;;;;;;;4.61;85.68;100386.16;5116029;28;19916;-65
2020/12/26 02:14:14;;;;;;;27.92;17.23;;;;;;;4.63;85.59;100381.03;5116124;28;20330;-65
2020/12/26 02:16:47;;;;;;;27.67;17.85;;;;;;;4.65;86.20;100375.13;5115876;28;20562;-65
2020/12/26 02:19:14;;;;;;;24.75;16.05;;;;;;;4.68;85.96;100368.84;5116175;28;20102;-62
2020/12/26 02:21:40;;;;;;;31.73;18.45;;;;;;;4.69;86.08;100361.28;5115824;28;20028;-67
2020/12/26 02:24:06;;;;;;;26.52;16.45;;;;;;;4.69;86.06;100350.16;5116105;28;20034;-65
2020/12/26 02:26:32;;;;;;;24.05;16.00;;;;;;;4.69;86.34;100355.72;5115739;28;20434;-62
2020/12/26 02:28:57;;;;;;;26.55;15.50;;;;;;;4.71;86.29;100358.94;5108068;28;20012;-63
2020/12/26 02:31:23;;;;;;;24.42;15.52;;;;;;;4.73;86.54;100356.59;5115966;28;20019;-62
2020/12/26 02:33:48;;;;;;;29.33;17.67;;;;;;;4.72;86.14;100358.59;5115696;28;20296;-63
2020/12/26 02:36:14;;;;;;;24.10;15.55;;;;;;;4.72;86.30;100353.03;5116269;28;20016;-62
2020/12/26 02:38:40;;;;;;;23.05;15.20;;;;;;;4.73;86.24;100354.63;5115663;28;20115;-60
2020/12/26 02:41:07;;;;;;;21.55;14.88;;;;;;;4.72;86.21;100355.00;5116079;28;20385;-66
2020/12/26 02:43:32;;;;;;;22.98;14.75;;;;;;;4.72;86.09;100355.81;5115682;28;20028;-61
2020/12/26 02:45:57;;;;;;;22.27;14.27;;;;;;;4.73;85.97;100351.84;5115755;28;20103;-62
2020/12/26 02:48:23;;;;;;;20.45;13.32;;;;;;;4.72;85.62;100360.56;5115756;28;20024;-62
2020/12/26 02:50:49;;;;;;;21.20;13.75;;;;;;;4.72;85.83;100363.34;5119078;28;20085;-65
2020/12/26 02:53:15;;;;;;;20.85;13.80;;;;;;;4.70;85.73;100355.38;5119875;28;20032;-64
2020/12/26 02:55:40;;;;;;;22.52;13.75;;;;;;;4.72;86.15;100355.00;5119702;28;20050;-64
2020/12/26 02:58:05;;;;;;;20.30;13.40;;;;;;;4.73;86.24;100351.84;5101825;28;20047;-64
2020/12/26 03:00:31;;;;;;;25.67;15.57;;;;;;;4.74;85.83;100358.22;5117296;28;20039;-64
2020/12/26 03:02:56;;;;;;;23.48;15.15;;;;;;;4.75;85.98;100360.66;5118239;28;20020;-63
2020/12/26 03:05:22;;;;;;;26.90;15.50;;;;;;;4.76;85.92;100367.81;5119898;28;20051;-64
2020/12/26 03:07:47;;;;;;;19.52;12.73;;;;;;;4.75;85.94;100369.00;5101644;28;20331;-65
2020/12/26 03:10:13;;;;;;;19.98;13.82;;;;;;;4.76;85.59;100383.72;5119443;28;20446;-63
2020/12/26 03:12:38;;;;;;;18.75;12.02;;;;;;;4.77;85.75;100385.34;5119656;28;20026;-62
2020/12/26 03:15:05;;;;;;;20.02;12.88;;;;;;;4.75;86.09;100387.69;5119604;28;20476;-62
2020/12/26 03:17:30;;;;;;;20.10;12.88;;;;;;;4.73;85.62;100388.03;5119405;28;20019;-62
2020/12/26 03:19:58;;;;;;;20.38;11.93;;;;;;;4.73;85.92;100373.31;5119357;28;20073;-62
2020/12/26 03:22:24;;;;;;;20.17;13.18;;;;;;;4.73;85.70;100362.19;5101489;28;20049;-62
2020/12/26 03:24:49;;;;;;;21.83;12.75;;;;;;;4.71;85.56;100375.66;5119284;28;20015;-63
2020/12/26 03:27:15;;;;;;;20.65;13.43;;;;;;;4.68;85.77;100374.41;5119306;28;20077;-62
2020/12/26 03:29:40;;;;;;;16.63;11.27;;;;;;;4.67;85.93;100377.56;5119287;28;20028;-61
2020/12/26 03:32:05;;;;;;;21.23;13.18;;;;;;;4.63;85.58;100378.25;5118952;28;20088;-63
2020/12/26 03:34:31;;;;;;;19.08;12.30;;;;;;;4.61;86.05;100377.00;5119253;28;20092;-64
2020/12/26 03:36:56;;;;;;;17.95;10.88;;;;;;;4.58;85.81;100367.41;5119033;28;20068;-66
2020/12/26 03:39:21;;;;;;;15.93;10.73;;;;;;;4.59;85.58;100371.00;5119244;28;20031;-65
2020/12/26 03:41:47;;;;;;;17.65;10.68;;;;;;;4.57;85.64;100373.34;5118633;28;20115;-64
2020/12/26 03:44:12;;;;;;;16.73;10.50;;;;;;;4.56;85.36;100360.59;5119116;28;20050;-65
2020/12/26 03:46:37;;;;;;;17.08;10.70;;;;;;;4.53;85.32;100358.53;5118814;28;20023;-66
2020/12/26 03:49:03;;;;;;;15.10;10.25;;;;;;;4.51;85.34;100349.75;5118898;28;20026;-63
2020/12/26 03:51:28;;;;;;;17.35;10.60;;;;;;;4.49;85.62;100343.75;5118687;28;20342;-65
2020/12/26 03:53:54;;;;;;;16.27;10.25;;;;;;;4.48;85.45;100337.38;5100831;28;20024;-65
2020/12/26 03:56:20;;;;;;;18.83;10.35;;;;;;;4.46;85.10;100345.28;5118389;28;20103;-64
2020/12/26 03:58:45;;;;;;;15.60;9.75;;;;;;;4.43;85.12;100343.22;5118760;28;20058;-66
2020/12/26 04:01:11;;;;;;;15.75;10.23;;;;;;;4.41;85.07;100328.88;5117687;28;20410;-64
2020/12/26 04:03:37;;;;;;;17.05;10.55;;;;;;;4.34;84.74;100331.47;5119043;28;20385;-64
2020/12/26 04:06:03;;;;;;;13.65;8.93;;;;;;;4.27;84.50;100339.66;5118321;28;20112;-64
2020/12/26 04:08:28;;;;;;;17.70;9.73;;;;;;;4.24;84.74;100357.06;5100573;28;20031;-64
2020/12/26 04:10:54;;;;;;;15.95;9.57;;;;;;;4.23;84.68;100380.50;5118438;28;20032;-64
2020/12/26 04:13:19;;;;;;;16.25;10.38;;;;;;;4.22;84.62;100390.81;5118194;28;20102;-65
2020/12/26 04:15:44;;;;;;;16.80;10.88;;;;;;;4.22;84.40;100401.13;5118471;28;20027;-65
2020/12/26 04:18:10;;;;;;;20.48;11.20;;;;;;;4.19;84.27;100410.22;5118162;28;20019;-64
2020/12/26 04:20:35;;;;;;;17.23;11.65;;;;;;;4.14;84.25;100416.03;5118260;28;20020;-64
2020/12/26 04:23:00;;;;;;;15.98;10.20;;;;;;;4.12;84.65;100423.94;5118046;28;20390;-64
2020/12/26 04:25:26;;;;;;;20.88;12.52;;;;;;;4.11;84.66;100437.03;5118190;28;20487;-65
2020/12/26 04:27:51;;;;;;;21.90;13.45;;;;;;;4.12;84.95;100449.78;5100000;28;20026;-65
2020/12/26 04:30:16;;;;;;;19.70;13.15;;;;;;;4.12;85.05;100443.41;5117749;28;20102;-64
2020/12/26 04:32:42;;;;;;;19.08;12.38;;;;;;;4.12;84.51;100440.63;5118192;28;20027;-65
2020/12/26 04:35:07;;;;;;;18.52;12.38;;;;;;;4.11;84.85;100434.25;5117926;28;20430;-66
2020/12/26 04:37:32;;;;;;;18.80;11.60;;;;;;;4.08;84.21;100432.16;5118189;28;20367;-62
2020/12/26 04:39:58;;;;;;;18.52;10.93;;;;;;;4.03;84.25;100427.69;5117667;28;20054;-62
2020/12/26 04:42:24;;;;;;;17.42;11.07;;;;;;;3.99;84.47;100426.78;5099671;28;20035;-63
2020/12/26 04:44:50;;;;;;;16.15;10.68;;;;;;;3.99;84.41;100439.88;5117902;28;20038;-59
2020/12/26 04:47:24;;;;;;;16.42;9.82;;;;;;;3.94;84.22;100432.63;5117673;28;20087;-62
2020/12/26 04:49:52;;;;;;;14.85;9.75;;;;;;;3.94;83.91;100432.63;5117950;28;20085;-61
2020/12/26 04:52:24;;;;;;;16.30;9.50;;;;;;;3.90;83.62;100437.28;5117162;28;20047;-60
2020/12/26 04:54:52;;;;;;;14.07;9.65;;;;;;;3.84;83.52;100427.59;5099606;28;20019;-62
2020/12/26 04:57:20;;;;;;;14.75;10.23;;;;;;;3.80;83.62;100446.13;5117243;28;20026;-62
2020/12/26 04:59:45;;;;;;;14.45;9.95;;;;;;;3.74;83.96;100455.91;5117564;28;20024;-62
2020/12/26 05:02:13;;;;;;;13.68;9.50;;;;;;;3.73;83.87;100465.41;5117529;28;20035;-62
2020/12/26 05:04:39;;;;;;;17.17;9.80;;;;;;;3.71;83.96;100468.53;5117426;28;20019;-62
2020/12/26 05:07:05;;;;;;;17.23;9.82;;;;;;;3.70;84.18;100478.03;5117253;28;20036;-67
2020/12/26 05:09:30;;;;;;;15.43;10.30;;;;;;;3.71;83.52;100478.84;5117186;28;20027;-66
2020/12/26 05:11:57;;;;;;;16.88;9.90;;;;;;;3.74;83.55;100467.00;5116616;28;20026;-63
2020/12/26 05:14:24;;;;;;;18.42;10.35;;;;;;;3.76;83.68;100477.78;5117352;28;20315;-61
2020/12/26 05:16:51;;;;;;;16.33;10.48;;;;;;;3.83;84.09;100480.75;5117619;28;20015;-63
2020/12/26 05:19:16;;;;;;;15.48;9.73;;;;;;;3.89;83.46;100491.28;5117166;28;20422;-65
2020/12/26 05:21:47;;;;;;;16.30;9.95;;;;;;;3.92;83.21;100496.13;5117182;28;20039;-65
2020/12/26 05:24:13;;;;;;;13.27;7.40;;;;;;;3.91;82.90;100500.06;5117045;28;20027;-64
2020/12/26 05:26:42;;;;;;;17.13;10.23;;;;;;;3.87;82.63;100506.72;5116796;28;20027;-64
2020/12/26 05:29:08;;;;;;;15.82;9.90;;;;;;;3.82;82.67;100524.44;5116908;28;20031;-65
2020/12/26 05:31:42;;;;;;;17.45;10.13;;;;;;;3.78;83.03;100534.66;5116869;28;20054;-65
2020/12/26 05:34:08;;;;;;;15.77;9.13;;;;;;;3.71;82.97;100534.44;5116806;28;20311;-65
2020/12/26 05:36:33;;;;;;;13.77;8.90;;;;;;;3.71;83.29;100540.00;5116612;28;20027;-65
2020/12/26 05:38:59;;;;;;;14.50;9.07;;;;;;;3.76;83.14;100536.16;5116654;28;20019;-64
2020/12/26 05:41:25;;;;;;;15.20;9.60;;;;;;;3.76;83.28;100548.09;5116715;28;20421;-65
2020/12/26 05:43:51;;;;;;;14.48;9.32;;;;;;;3.73;83.50;100551.59;5116481;28;20371;-65
2020/12/26 05:46:16;;;;;;;19.08;11.45;;;;;;;3.70;83.70;100549.50;5117086;28;20358;-65
2020/12/26 05:48:42;;;;;;;18.13;11.07;;;;;;;3.70;83.74;100546.72;5116480;28;20020;-65
2020/12/26 05:51:07;;;;;;;20.90;12.68;;;;;;;3.69;83.61;100554.25;5116199;28;20036;-62
2020/12/26 05:53:33;;;;;;;22.55;12.90;;;;;;;3.70;83.30;100560.63;5116527;28;20313;-62
2020/12/26 05:55:59;;;;;;;17.50;11.88;;;;;;;3.69;83.56;100570.94;5116092;28;20075;-62
2020/12/26 05:58:25;;;;;;;15.63;10.38;;;;;;;3.71;83.28;100579.75;5116619;28;20020;-63
2020/12/26 06:00:52;;;;;;;18.52;10.75;;;;;;;3.71;83.27;100578.94;5116263;28;20051;-63
2020/12/26 06:03:23;;;;;;;18.60;10.65;;;;;;;3.69;82.88;100579.28;5116377;28;20024;-62
2020/12/26 06:05:50;;;;;;;17.70;10.73;;;;;;;3.69;83.04;100584.03;5116261;28;20035;-62
2020/12/26 06:08:16;;;;;;;16.05;10.82;;;;;;;3.67;82.90;100586.34;5116318;28;20028;-62
2020/12/26 06:10:49;;;;;;;18.65;10.68;;;;;;;3.66;82.81;100596.66;5115947;28;20027;-63
2020/12/26 06:13:17;;;;;;;15.13;9.38;;;;;;;3.66;83.04;100599.44;5115927;28;20039;-62
2020/12/26 06:15:48;;;;;;;16.08;10.48;;;;;;;3.66;83.02;100604.19;5116644;28;20064;-64
2020/12/26 06:18:16;;;;;;;15.60;9.93;;;;;;;3.68;83.33;100618.56;5115998;28;20103;-65
2020/12/26 06:20:42;;;;;;;16.27;10.23;;;;;;;3.69;83.02;100626.53;5116094;28;20511;-65
2020/12/26 06:23:14;;;;;;;19.45;11.73;;;;;;;3.70;83.12;100633.72;5115586;28;20102;-64
2020/12/26 06:25:43;;;;;;;20.95;12.57;;;;;;;3.73;83.15;100637.75;5115865;28;20356;-66
2020/12/26 06:28:22;;;;;;;34.90;22.15;;;;;;;3.76;83.24;100655.72;5115643;28;20350;-65
2020/12/26 06:30:48;;;;;;;28.90;19.23;;;;;;;3.78;82.77;100661.72;5116089;28;20024;-66
2020/12/26 06:33:14;;;;;;;22.23;13.45;;;;;;;3.79;82.76;100669.72;5115654;28;20051;-63
2020/12/26 06:35:42;;;;;;;19.08;11.35;;;;;;;3.79;82.78;100678.06;5116038;28;20036;-63
2020/12/26 06:38:11;;;;;;;19.45;10.63;;;;;;;3.78;82.88;100672.84;5115805;28;20020;-62
2020/12/26 06:40:38;;;;;;;16.48;10.70;;;;;;;3.78;83.10;100679.22;5115550;28;20096;-62
2020/12/26 06:43:03;;;;;;;16.38;10.73;;;;;;;3.79;82.72;100682.81;5116095;28;20076;-61
2020/12/26 06:45:30;;;;;;;18.40;12.35;;;;;;;3.80;83.05;100687.22;5115615;28;20020;-65
2020/12/26 06:47:55;;;;;;;75.05;31.80;;;;;;;3.80;82.69;100676.09;5115805;28;20024;-62
2020/12/26 06:50:29;;;;;;;64.22;30.38;;;;;;;3.81;82.66;100677.72;5115580;28;20072;-65
2020/12/26 06:52:55;;;;;;;45.45;24.10;;;;;;;3.81;83.12;100683.28;5083936;28;20011;-66
2020/12/26 06:55:40;;;;;;;32.65;18.67;;;;;;;3.82;83.17;100688.47;5115359;28;20470;-65
2020/12/26 06:58:32;;;;;;;27.88;15.55;;;;;;;3.81;82.98;100684.09;5102404;28;20296;-62
2020/12/26 07:00:58;;;;;;;28.75;15.95;;;;;;;3.81;83.04;100686.06;5115517;28;20429;-64
2020/12/26 07:03:31;;;;;;;29.50;17.35;;;;;;;3.81;82.92;100683.28;5115689;28;20031;-65
2020/12/26 07:05:57;;;;;;;25.90;15.30;;;;;;;3.79;82.58;100678.06;5115797;28;20076;-63
2020/12/26 07:08:31;;;;;;;18.48;12.63;;;;;;;3.78;82.97;100668.09;5115261;28;20487;-63
2020/12/26 07:10:59;;;;;;;20.42;13.80;;;;;;;3.79;82.95;100664.16;5115549;28;20027;-63
2020/12/26 07:13:44;;;;;;;19.02;12.85;;;;;;;3.78;83.03;100656.97;5115622;28;20403;-62
2020/12/26 07:16:46;;;;;;;15.75;10.40;;;;;;;3.77;82.43;100672.03;5115659;28;20027;-61
2020/12/26 07:19:25;;;;;;;;;;;;;;;3.77;82.64;100682.34;5115995;28;20020;-63
2020/12/26 07:21:58;;;;;;;15.77;9.48;;;;;;;3.77;83.00;100685.94;5101339;28;19960;-62
2020/12/26 07:24:38;;;;;;;22.35;11.38;;;;;;;3.79;83.23;100691.97;5115750;28;20023;-66
2020/12/26 07:27:15;;;;;;;21.50;12.68;;;;;;;3.78;83.25;100678.41;5115260;28;20023;-62
2020/12/26 07:30:05;;;;;;;21.33;13.07;;;;;;;3.77;82.83;100671.25;5101051;28;20081;-65
2020/12/26 07:32:42;;;;;;;16.58;10.40;;;;;;;3.75;82.76;100663.25;5097474;28;20031;-60
2020/12/26 07:35:15;;;;;;;16.95;9.88;;;;;;;3.77;83.02;100672.03;5115981;28;20062;-63
2020/12/26 07:37:45;;;;;;;19.95;11.73;;;;;;;3.77;82.52;100666.50;5118983;28;20046;-64
2020/12/26 07:40:18;;;;;;;18.75;11.75;;;;;;;3.76;82.80;100675.19;5104623;28;20080;-62
2020/12/26 07:42:44;;;;;;;18.05;11.50;;;;;;;3.78;82.31;100686.75;5118987;28;20073;-64
2020/12/26 07:45:11;;;;;;;22.90;13.30;;;;;;;3.76;82.58;100698.22;5119093;28;20031;-65
2020/12/26 07:47:41;;;;;;;20.48;12.63;;;;;;;3.77;82.50;100705.41;5119587;28;20035;-66
2020/12/26 07:50:07;;;;;;;19.10;11.40;;;;;;;3.78;82.41;100723.72;5118468;28;20063;-64
2020/12/26 07:52:33;;;;;;;16.77;11.13;;;;;;;3.82;82.50;100726.59;5106044;28;20063;-65
2020/12/26 07:55:03;;;;;;;18.48;11.55;;;;;;;3.83;82.20;100725.44;5110877;28;20054;-65
2020/12/26 07:57:29;;;;;;;16.10;10.80;;;;;;;3.88;82.37;100720.47;5106417;28;20411;-65
2020/12/26 07:59:55;;;;;;;19.92;10.35;;;;;;;3.89;82.04;100719.31;5102546;28;20016;-65
2020/12/26 08:02:21;;;;;;;19.25;10.80;;;;;;;3.90;82.06;100732.06;5099472;28;20032;-64
2020/12/26 08:04:47;;;;;;;25.35;12.10;;;;;;;3.89;82.30;100730.44;5102601;28;20020;-63
2020/12/26 08:07:14;;;;;;;20.83;11.95;;;;;;;3.91;82.04;100733.69;5099858;28;20020;-64
2020/12/26 08:09:52;;;;;;;25.23;15.20;;;;;;;3.93;82.13;100736.91;5100262;28;20020;-64
2020/12/26 08:12:19;;;;;;;23.15;15.82;;;;;;;3.95;81.96;100744.91;5099091;28;20042;-64
2020/12/26 08:14:54;;;;;;;17.08;11.73;;;;;;;3.99;81.83;100743.84;5099769;28;20492;-65
2020/12/26 08:17:22;;;;;;;17.42;11.00;;;;;;;4.02;81.71;100747.91;5102839;28;20091;-65
2020/12/26 08:19:48;;;;;;;13.23;9.18;;;;;;;4.05;81.77;100747.22;5102879;28;20088;-66
2020/12/26 08:22:14;;;;;;;19.10;10.43;;;;;;;4.13;81.33;100764.94;5100855;28;20028;-66
2020/12/26 08:24:39;;;;;;;12.75;9.00;;;;;;;4.16;81.29;100767.03;5100475;28;20023;-66
2020/12/26 08:27:05;;;;;;;13.98;8.85;;;;;;;4.16;80.83;100772.59;5103955;28;20051;-66
2020/12/26 08:29:32;;;;;;;12.57;8.77;;;;;;;4.16;80.72;100767.84;5098115;28;20099;-66
2020/12/26 08:32:02;;;;;;;13.88;8.73;;;;;;;4.17;80.74;100782.56;5112045;28;20031;-66
2020/12/26 08:34:39;;;;;;;20.42;11.93;;;;;;;4.22;80.38;100783.13;5087815;28;20027;-63
2020/12/26 08:37:15;;;;;;;27.20;13.45;;;;;;;4.26;79.88;100781.25;5101951;28;20312;-68
2020/12/26 08:39:42;;;;;;;15.63;9.85;;;;;;;4.32;79.94;100774.28;5099387;28;20027;-65
2020/12/26 08:42:13;;;;;;;13.80;9.25;;;;;;;4.30;79.72;100779.38;5100536;28;20059;-65
2020/12/26 08:44:38;;;;;;;15.93;9.33;;;;;;;4.35;79.84;100786.69;5099843;28;20038;-65
2020/12/26 08:47:04;;;;;;;14.82;8.35;;;;;;;4.35;79.63;100789.47;5101991;28;20407;-64
2020/12/26 08:49:29;;;;;;;15.93;8.65;;;;;;;4.32;79.31;100793.75;5099117;28;20424;-65
2020/12/26 08:51:54;;;;;;;14.73;9.40;;;;;;;4.30;79.16;100798.06;5113702;28;20040;-63
2020/12/26 08:54:23;;;;;;;25.95;9.88;;;;;;;4.34;79.48;100802.56;5112910;28;20023;-65
2020/12/26 08:56:50;;;;;;;19.35;9.20;;;;;;;4.36;79.06;100810.56;5117825;28;20080;-64
2020/12/26 08:59:28;;;;;;;15.15;8.13;;;;;;;4.38;79.47;100811.03;5117506;28;20024;-63
2020/12/26 09:01:55;;;;;;;16.95;8.75;;;;;;;4.44;78.80;100801.28;5087664;28;20032;-65
2020/12/26 09:04:20;;;;;;;11.10;7.50;;;;;;;4.46;78.22;100795.38;5113329;28;20438;-65
2020/12/26 09:06:46;;;;;;;10.77;7.85;;;;;;;4.51;78.63;100798.72;5114938;28;20035;-65
2020/12/26 09:09:22;;;;;;;17.17;10.48;;;;;;;4.55;78.08;100796.03;5111869;28;20093;-68
2020/12/26 09:12:02;;;;;;;25.38;16.77;;;;;;;4.52;77.91;100789.19;5114890;28;20071;-65
2020/12/26 09:14:27;;;;;;;23.95;18.52;;;;;;;4.55;76.87;100780.16;5093887;28;20020;-65
2020/12/26 09:16:58;;;;;;;16.65;10.00;;;;;;;4.56;76.05;100780.97;5107835;28;20024;-64
2020/12/26 09:19:24;;;;;;;19.02;10.52;;;;;;;4.57;76.92;100772.25;5098166;28;20039;-65
2020/12/26 09:21:49;;;;;;;21.30;13.43;;;;;;;4.57;76.95;100751.94;5099142;28;20042;-64
2020/12/26 09:24:17;;;;;;;17.95;13.70;;;;;;;4.59;77.13;100744.06;5098258;28;20032;-64
2020/12/26 09:26:43;;;;;;;20.15;12.93;;;;;;;4.61;76.43;100750.06;5099250;28;20421;-75
2020/12/26 09:29:08;;;;;;;17.23;11.20;;;;;;;4.62;75.63;100752.50;5097505;28;20102;-63
2020/12/26 09:31:38;;;;;;;27.25;14.70;;;;;;;4.67;75.64;100742.31;5101202;28;20028;-65
2020/12/26 09:34:24;;;;;;;17.02;10.85;;;;;;;4.65;74.31;100728.72;5081423;28;20331;-63
2020/12/26 09:37:06;;;;;;;19.88;11.85;;;;;;;4.68;74.52;100730.00;5099562;28;20314;-63
2020/12/26 09:39:32;;;;;;;25.27;14.60;;;;;;;4.64;74.23;100739.03;5098389;28;20529;-65
2020/12/26 09:41:57;;;;;;;19.60;11.73;;;;;;;4.63;74.02;100751.34;5099725;28;20035;-64
2020/12/26 09:44:23;;;;;;;18.63;11.55;;;;;;;4.68;74.21;100755.88;5097838;28;20039;-64
2020/12/26 09:46:58;;;;;;;23.08;11.27;;;;;;;4.65;74.03;100779.63;5099654;28;20055;-67
2020/12/26 09:49:24;;;;;;;20.67;12.90;;;;;;;4.62;73.60;100788.69;5114181;28;20419;-65
2020/12/26 09:51:49;;;;;;;16.38;11.13;;;;;;;4.61;73.96;100784.28;5110805;28;20044;-65
2020/12/26 09:54:15;;;;;;;15.60;9.48;;;;;;;4.59;73.75;100786.63;5113441;28;20102;-65
2020/12/26 09:56:40;;;;;;;13.70;8.73;;;;;;;4.60;73.62;100791.03;5098551;28;20023;-65
2020/12/26 09:59:06;;;;;;;16.95;9.70;;;;;;;4.58;73.67;100817.59;5115757;28;20234;-63
2020/12/26 10:01:31;;;;;;;14.63;9.10;;;;;;;4.57;73.71;100824.34;5104729;28;20097;-66
2020/12/26 10:03:57;;;;;;;12.68;8.80;;;;;;;4.54;73.62;100814.72;5106541;28;20032;-66
2020/12/26 10:06:22;;;;;;;14.48;9.25;;;;;;;4.57;73.73;100822.38;5089398;28;20027;-65
2020/12/26 10:08:48;;;;;;;25.50;13.63;;;;;;;4.59;74.19;100828.38;5104244;28;20023;-65
2020/12/26 10:11:16;;;;;;;26.02;12.30;;;;;;;4.60;73.73;100835.56;5103357;28;20018;-66
2020/12/26 10:13:43;;;;;;;58.75;24.35;;;;;;;4.63;73.82;100837.66;5097044;28;20032;-63
2020/12/26 10:16:08;;;;;;;39.28;18.95;;;;;;;4.63;72.56;100834.88;5100836;28;20058;-64
2020/12/26 10:18:34;;;;;;;26.08;15.48;;;;;;;4.65;72.09;100829.75;5098782;28;20051;-64
2020/12/26 10:21:00;;;;;;;17.02;10.32;;;;;;;4.71;72.92;100826.75;5096056;28;20024;-65
2020/12/26 10:23:27;;;;;;;18.75;10.77;;;;;;;4.76;72.82;100812.56;5099295;28;20016;-64
2020/12/26 10:25:52;;;;;;;24.70;12.07;;;;;;;4.78;72.00;100810.25;5097021;28;20020;-64
2020/12/26 10:28:18;;;;;;;19.88;12.35;;;;;;;4.84;72.72;100806.03;5098627;28;20399;-65
2020/12/26 10:30:44;;;;;;;10.00;7.50;;;;;;;4.85;72.10;100799.31;5109802;28;20098;-68
2020/12/26 10:33:09;;;;;;;13.85;7.80;;;;;;;4.90;71.96;100790.69;5090158;28;20024;-64
2020/12/26 10:35:35;;;;;;;12.77;7.88;;;;;;;4.95;71.84;100782.91;5097684;28;20077;-70
2020/12/26 10:38:00;;;;;;;12.32;6.63;;;;;;;4.97;71.28;100791.72;5082239;28;20052;-63
2020/12/26 10:40:26;;;;;;;11.57;6.72;;;;;;;5.00;69.53;100794.97;5101640;28;20237;-65
2020/12/26 10:42:51;;;;;;;26.50;12.55;;;;;;;5.07;70.18;100812.69;5101071;28;20063;-65
2020/12/26 10:45:16;;;;;;;16.00;9.13;;;;;;;5.14;70.92;100832.38;5111148;28;20019;-65
2020/12/26 10:47:42;;;;;;;22.45;9.35;;;;;;;5.16;68.97;100834.81;5098320;28;20035;-64
2020/12/26 10:50:08;;;;;;;26.75;11.15;;;;;;;5.20;69.42;100836.56;5109560;28;20054;-65
2020/12/26 10:52:33;;;;;;;16.40;9.10;;;;;;;5.25;69.34;100853.00;5103681;28;20036;-63
2020/12/26 10:54:59;;;;;;;18.48;9.15;;;;;;;5.30;69.39;100853.91;5098366;28;20024;-63
2020/12/26 10:57:25;;;;;;;20.17;10.82;;;;;;;5.28;69.27;100857.88;5100738;28;20067;-62
2020/12/26 10:59:50;;;;;;;21.80;11.13;;;;;;;5.26;66.97;100853.81;5099169;28;20415;-63
2020/12/26 11:02:15;;;;;;;22.52;9.88;;;;;;;5.22;65.92;100859.28;5104478;28;20063;-65
2020/12/26 11:04:41;;;;;;;14.20;8.95;;;;;;;5.22;68.31;100867.66;5109903;28;20015;-65
2020/12/26 11:07:06;;;;;;;11.80;7.95;;;;;;;5.18;68.46;100858.38;5108235;28;20056;-63
2020/12/26 11:09:31;;;;;;;17.65;9.80;;;;;;;5.17;67.10;100855.94;5107642;28;20019;-62
2020/12/26 11:11:57;;;;;;;27.48;12.90;;;;;;;5.16;68.33;100863.47;5114553;28;20018;-64
2020/12/26 11:14:22;;;;;;;15.07;8.65;;;;;;;5.18;68.04;100858.38;5109107;28;20346;-64
2020/12/26 11:16:49;;;;;;;13.02;8.88;;;;;;;5.15;67.07;100847.94;5114658;28;20031;-64
2020/12/26 11:19:15;;;;;;;22.73;12.65;;;;;;;5.12;66.70;100848.63;5110872;28;20019;-62